Time,TemperatureF,DewpointF,PressureIn,WindDirection,WindDirectionDegrees,WindSpeedMPH,WindSpeedGustMPH,Humidity,HourlyPrecipIn,Conditions,Clouds,dailyrainin,SoftwareType,DateUTC
2013-04-24 00:00:00,50.0,38.0,29.83,SSE,160,6.0,-999.0,64,-99.99,,,-99.99,,2013-04-24 04:00:00,
2013-04-24 00:22:00,50.0,38.0,29.83,SSE,160,6.0,-999.0,64,-99.99,,,-99.99,,2013-04-24 04:22:00,
2013-04-24 00:33:00,50.0,38.0,29.83,SSE,160,6.0,-999.0,64,-99.99,,,-99.99,,2013-04-24 04:33:00,
2013-04-24 00:43:00,50.0,38.0,29.83,SSE,160,6.0,-999.0,64,-99.99,,,-99.99,,2013-04-24 04:43:00,
2013-04-24 00:52:00,50.0,38.0,29.83,SSE,160,6.0,-999.0,64,-99.99,,,-99.99,,2013-04-24 04:52:00,
2013-04-24 01:00:00,50.0,38.0,29.84,SSE,150,7.0,-999.0,64,-99.99,,,-99.99,,2013-04-24 05:00:00,
2013-04-24 01:21:00,50.0,38.0,29.84,SSE,150,7.0,-999.0,64,-99.99,,,-99.99,,2013-04-24 05:21:00,
2013-04-24 01:32:00,50.0,38.0,29.84,SSE,150,7.0,-999.0,64,-99.99,,,-99.99,,2013-04-24 05:32:00,
2013-04-24 01:42:00,50.0,38.0,29.84,SSE,150,7.0,-999.0,64,-99.99,,,-99.99,,2013-04-24 05:42:00,
2013-04-24 01:51:00,50.0,38.0,29.84,SSE,150,7.0,-999.0,64,-99.99,,,-99.99,,2013-04-24 05:51:00,
2013-04-24 02:00:00,47.0,41.0,29.81,SE,130,6.0,-999.0,77,-99.99,,,-99.99,,2013-04-24 06:00:00,
2013-04-24 02:21:00,47.0,41.0,29.81,SE,130,6.0,-999.0,77,-99.99,,,-99.99,,2013-04-24 06:21:00,
2013-04-24 02:32:00,47.0,41.0,29.81,SE,130,6.0,-999.0,77,-99.99,,,-99.99,,2013-04-24 06:32:00,
2013-04-24 02:41:00,47.0,41.0,29.81,SE,130,6.0,-999.0,77,-99.99,,,-99.99,,2013-04-24 06:41:00,
2013-04-24 02:51:00,47.0,41.0,29.81,SE,130,6.0,-999.0,77,-99.99,,,-99.99,,2013-04-24 06:51:00,
2013-04-24 03:00:00,48.0,42.0,29.79,SW,220,3.0,-999.0,81,-99.99,,,-99.99,,2013-04-24 07:00:00,
2013-04-24 03:21:00,48.0,42.0,29.79,SW,220,3.0,-999.0,81,-99.99,,,-99.99,,2013-04-24 07:21:00,
2013-04-24 03:31:00,48.0,42.0,29.79,SW,220,3.0,-999.0,81,-99.99,,,-99.99,,2013-04-24 07:31:00,
2013-04-24 03:41:00,48.0,42.0,29.79,SW,220,3.0,-999.0,81,-99.99,,,-99.99,,2013-04-24 07:41:00,
2013-04-24 03:51:00,48.0,42.0,29.79,SW,220,3.0,-999.0,81,-99.99,,,-99.99,,2013-04-24 07:51:00,
2013-04-24 08:00:00,39.0,39.0,29.77,West,280,6.0,-999.0,99,-99.99,,,-99.99,,2013-04-24 12:00:00,
2013-04-24 08:22:00,39.0,39.0,29.77,West,280,6.0,-999.0,99,-99.99,,,-99.99,,2013-04-24 12:22:00,
2013-04-24 08:31:00,39.0,39.0,29.77,West,280,6.0,-999.0,99,-99.99,,,-99.99,,2013-04-24 12:31:00,
2013-04-24 08:42:00,39.0,39.0,29.77,West,280,6.0,-999.0,99,-99.99,,,-99.99,,2013-04-24 12:42:00,
2013-04-24 08:51:00,39.0,39.0,29.77,West,280,6.0,-999.0,99,-99.99,,,-99.99,,2013-04-24 12:51:00,
2013-04-24 14:00:00,39.0,37.0,29.73,North,350,5.0,-999.0,94,-99.99,,,-99.99,,2013-04-24 18:00:00,
2013-04-24 14:21:00,39.0,37.0,29.73,North,350,5.0,-999.0,94,-99.99,,,-99.99,,2013-04-24 18:21:00,
2013-04-24 14:32:00,39.0,37.0,29.73,North,350,5.0,-999.0,94,-99.99,,,-99.99,,2013-04-24 18:32:00,
2013-04-24 14:42:00,39.0,37.0,29.73,North,350,5.0,-999.0,94,-99.99,,,-99.99,,2013-04-24 18:42:00,
2013-04-24 14:52:00,39.0,37.0,29.73,North,350,5.0,-999.0,94,-99.99,,,-99.99,,2013-04-24 18:52:00,
2013-04-24 20:00:00,34.0,34.0,29.83,WNW,300,10.0,-999.0,99,-99.99,,,-99.99,,2013-04-25 00:00:00,
2013-04-24 20:22:00,34.0,34.0,29.83,WNW,300,10.0,-999.0,99,-99.99,,,-99.99,,2013-04-25 00:22:00,
2013-04-24 20:32:00,34.0,34.0,29.83,WNW,300,10.0,-999.0,99,-99.99,,,-99.99,,2013-04-25 00:32:00,
2013-04-24 20:41:00,34.0,34.0,29.83,WNW,300,10.0,-999.0,99,-99.99,,,-99.99,,2013-04-25 00:41:00,
2013-04-24 20:51:00,34.0,34.0,29.83,WNW,300,10.0,-999.0,99,-99.99,,,-99.99,,2013-04-25 00:51:00,